createdAt,value
2024-02-19T00:01:06.577Z,101608.00
2024-02-19T00:03:34.797Z,101590.75
2024-02-19T00:06:02.225Z,101594.22
2024-02-19T00:08:29.641Z,101602.00
2024-02-19T00:10:57.432Z,101595.94
2024-02-19T00:13:25.135Z,101589.00
2024-02-19T00:15:52.668Z,101588.94
2024-02-19T00:18:20.501Z,101599.31
2024-02-19T00:20:50.210Z,101594.12
2024-02-19T00:23:17.760Z,101582.91
2024-02-19T00:25:45.851Z,101585.50
2024-02-19T00:28:13.560Z,101587.28
2024-02-19T00:30:41.103Z,101585.44
2024-02-19T00:33:09.731Z,101594.06
2024-02-19T00:35:37.337Z,101591.53
2024-02-19T00:38:05.385Z,101584.62
2024-02-19T00:40:34.009Z,101577.59
2024-02-19T00:43:01.413Z,101583.66
2024-02-19T00:45:28.872Z,101587.09
2024-02-19T00:47:56.689Z,101584.44
2024-02-19T00:50:24.113Z,101578.41
2024-02-19T00:52:53.810Z,101583.63
2024-02-19T00:55:24.711Z,101584.44
2024-02-19T00:57:52.213Z,101584.25
2024-02-19T01:00:19.895Z,101582.53
2024-02-19T01:02:47.833Z,101579.06
2024-02-19T01:05:15.680Z,101582.53
2024-02-19T01:07:43.243Z,101578.03
2024-02-19T01:10:11.027Z,101577.97
2024-02-19T01:12:39.548Z,101572.00
2024-02-19T01:15:07.483Z,101570.31
2024-02-19T01:17:35.256Z,101573.69
2024-02-19T01:20:03.353Z,101573.72
2024-02-19T01:22:32.972Z,101566.84
2024-02-19T01:25:01.412Z,101569.41
2024-02-19T01:27:29.885Z,101558.19
2024-02-19T01:29:57.533Z,101559.94
2024-02-19T01:32:25.342Z,101553.78
2024-02-19T01:34:53.310Z,101542.44
2024-02-19T01:37:22.027Z,101547.72
2024-02-19T01:39:49.858Z,101540.81
2024-02-19T01:42:17.292Z,101545.03
2024-02-19T01:44:44.779Z,101545.78
2024-02-19T01:47:12.624Z,101535.00
2024-02-19T01:49:40.214Z,101538.53
2024-02-19T01:52:08.188Z,101535.22
2024-02-19T01:54:37.106Z,101530.97
2024-02-19T01:57:04.634Z,101529.28
2024-02-19T01:59:35.644Z,101532.47
2024-02-19T02:02:03.917Z,101528.31
2024-02-19T02:04:31.678Z,101530.03
2024-02-19T02:06:59.112Z,101527.38
2024-02-19T02:09:26.666Z,101523.00
2024-02-19T02:11:54.457Z,101520.50
2024-02-19T02:14:22.002Z,101519.69
2024-02-19T02:16:50.064Z,101511.09
2024-02-19T02:19:17.900Z,101513.59
2024-02-19T02:21:45.836Z,101512.75
2024-02-19T02:24:13.499Z,101511.91
2024-02-19T02:26:41.308Z,101504.06
2024-02-19T02:29:08.892Z,101512.78
2024-02-19T02:31:36.354Z,101508.34
2024-02-19T02:34:06.298Z,101500.59
2024-02-19T02:36:34.536Z,101498.84
2024-02-19T02:39:02.086Z,101503.94
2024-02-19T02:41:29.833Z,101493.66
2024-02-19T02:43:57.308Z,101494.53
2024-02-19T02:46:25.223Z,101498.91
2024-02-19T02:48:53.448Z,101491.13
2024-02-19T02:51:21.042Z,101486.75
2024-02-19T02:53:48.542Z,101498.00
2024-02-19T02:56:22.416Z,101490.06
2024-02-19T02:58:50.907Z,101490.13
2024-02-19T03:01:21.277Z,101484.97
2024-02-19T03:03:48.916Z,101484.13
2024-02-19T03:06:16.517Z,101486.62
2024-02-19T03:08:45.047Z,101482.22
2024-02-19T03:11:13.701Z,101478.03
2024-02-19T03:13:41.325Z,101467.72
2024-02-19T03:16:09.367Z,101479.62
2024-02-19T03:18:37.011Z,101476.19
2024-02-19T03:21:09.367Z,101479.69
2024-02-19T03:23:37.213Z,101473.41
2024-02-19T03:26:05.695Z,101475.91
2024-02-19T03:28:34.167Z,101465.56
2024-02-19T03:31:02.006Z,101468.13
2024-02-19T03:33:29.759Z,101464.81
2024-02-19T03:35:57.257Z,101471.72
2024-02-19T03:38:25.731Z,101459.72
2024-02-19T03:40:53.119Z,101463.97
2024-02-19T03:43:20.640Z,101461.28
2024-02-19T03:45:48.531Z,101469.72
2024-02-19T03:48:16.054Z,101459.31
2024-02-19T03:50:43.607Z,101461.78
2024-02-19T03:53:11.630Z,101458.41
2024-02-19T03:55:39.088Z,101454.00
2024-02-19T03:58:07.197Z,101459.31
2024-02-19T04:00:35.168Z,101453.97
2024-02-19T04:03:03.311Z,101449.63
2024-02-19T04:05:30.913Z,101451.13
2024-02-19T04:08:00.676Z,101447.69
2024-02-19T04:10:28.417Z,101456.16
2024-02-19T04:12:55.864Z,101456.09
2024-02-19T04:15:23.437Z,101458.59
2024-02-19T04:17:51.354Z,101463.75
2024-02-19T04:20:18.924Z,101466.47
2024-02-19T04:22:46.394Z,101465.66
2024-02-19T04:25:14.922Z,101454.63
2024-02-19T04:27:42.405Z,101457.28
2024-02-19T04:30:10.263Z,101457.22
2024-02-19T04:32:38.228Z,101453.84
2024-02-19T04:35:06.085Z,101453.00
2024-02-19T04:37:33.616Z,101451.25
2024-02-19T04:40:01.946Z,101454.31
2024-02-19T04:42:29.614Z,101458.47
2024-02-19T04:44:59.378Z,101455.28
2024-02-19T04:47:27.114Z,101458.84
2024-02-19T04:49:54.677Z,101457.22
2024-02-19T04:52:22.229Z,101452.16
2024-02-19T04:54:50.079Z,101454.84
2024-02-19T04:57:17.533Z,101450.59
2024-02-19T04:59:44.946Z,101438.38
2024-02-19T05:02:13.173Z,101447.03
2024-02-19T05:04:41.344Z,101435.88
2024-02-19T05:07:09.089Z,101429.00
2024-02-19T05:09:37.240Z,101435.72
2024-02-19T05:12:05.349Z,101426.16
2024-02-19T05:14:32.944Z,101428.69
2024-02-19T05:17:01.779Z,101422.72
2024-02-19T05:19:29.400Z,101417.41
2024-02-19T05:21:57.124Z,101418.19
2024-02-19T05:24:25.005Z,101413.91
2024-02-19T05:26:52.500Z,101420.88
2024-02-19T05:29:20.881Z,101416.69
2024-02-19T05:31:48.837Z,101413.31
2024-02-19T05:34:16.956Z,101413.19
2024-02-19T05:36:44.502Z,101418.94
2024-02-19T05:39:14.984Z,101427.09
2024-02-19T05:41:42.550Z,101426.03
2024-02-19T05:44:11.099Z,101422.91
2024-02-19T05:46:57.638Z,101424.69
2024-02-19T05:49:25.257Z,101418.84
2024-02-19T05:51:53.801Z,101430.78
2024-02-19T05:54:24.408Z,101423.03
2024-02-19T05:56:51.912Z,101422.12
2024-02-19T05:59:19.764Z,101421.84
2024-02-19T06:01:47.340Z,101419.56
2024-02-19T06:04:18.653Z,101417.00
2024-02-19T06:06:46.441Z,101420.44
2024-02-19T06:09:13.970Z,101423.00
2024-02-19T06:11:45.467Z,101426.41
2024-02-19T06:14:13.095Z,101425.44
2024-02-19T06:16:40.554Z,101427.03
2024-02-19T06:19:09.934Z,101429.53
2024-02-19T06:21:37.795Z,101426.81
2024-02-19T06:24:05.729Z,101431.91
2024-02-19T06:26:33.458Z,101430.94
2024-02-19T06:29:01.086Z,101437.81
2024-02-19T06:31:29.600Z,101435.00
2024-02-19T06:33:59.976Z,101429.72
2024-02-19T06:36:27.533Z,101426.22
2024-02-19T06:38:57.442Z,101421.06
2024-02-19T06:41:28.269Z,101430.66
2024-02-19T06:43:55.721Z,101442.09
2024-02-19T06:46:25.406Z,101438.09
2024-02-19T06:48:53.262Z,101435.53
2024-02-19T06:51:23.644Z,101442.31
2024-02-19T06:53:51.909Z,101449.94
2024-02-19T06:56:19.702Z,101440.16
2024-02-19T06:58:54.586Z,101448.91
2024-02-19T07:01:22.727Z,101447.34
2024-02-19T07:03:53.192Z,101444.22
2024-02-19T07:06:20.824Z,101444.47
2024-02-19T07:08:48.939Z,101443.63
2024-02-19T07:11:16.424Z,101443.69
2024-02-19T07:13:44.368Z,101438.47
2024-02-19T07:16:12.187Z,101442.03
2024-02-19T07:18:40.030Z,101435.91
2024-02-19T07:21:07.775Z,101443.69
2024-02-19T07:23:36.470Z,101435.72
2024-02-19T07:26:04.499Z,101442.53
2024-02-19T07:28:32.344Z,101449.53
2024-02-19T07:31:00.480Z,101447.00
2024-02-19T07:33:28.979Z,101438.44
2024-02-19T07:35:58.841Z,101443.75
2024-02-19T07:38:26.658Z,101441.88
2024-02-19T07:41:01.293Z,101444.44
2024-02-19T07:43:29.310Z,101433.84
2024-02-19T07:46:00.458Z,101437.53
2024-02-19T07:48:28.051Z,101437.44
2024-02-19T07:50:58.945Z,101445.19
2024-02-19T07:53:28.644Z,101445.19
2024-02-19T07:56:26.263Z,101439.12
2024-02-19T07:58:56.276Z,101438.19
2024-02-19T08:01:24.134Z,101443.34
2024-02-19T08:03:52.112Z,101438.13
2024-02-19T08:06:19.659Z,101445.84
2024-02-19T08:08:47.249Z,101437.97
2024-02-19T08:11:14.990Z,101434.41
2024-02-19T08:13:43.234Z,101430.91
2024-02-19T08:16:14.185Z,101430.78
2024-02-19T08:18:42.484Z,101430.66
2024-02-19T08:21:12.447Z,101422.72
2024-02-19T08:23:39.950Z,101427.78
2024-02-19T08:26:17.573Z,101418.97
2024-02-19T08:28:47.903Z,101420.47
2024-02-19T08:31:15.951Z,101407.16
2024-02-19T08:33:43.875Z,101413.69
2024-02-19T08:36:11.670Z,101415.19
2024-02-19T08:38:45.875Z,101414.22
2024-02-19T08:41:13.589Z,101408.88
2024-02-19T08:43:41.431Z,101403.53
2024-02-19T08:46:11.284Z,101405.91
2024-02-19T08:48:38.955Z,101402.47
2024-02-19T08:51:07.088Z,101402.19
2024-02-19T08:53:34.650Z,101404.34
2024-02-19T08:56:02.150Z,101399.47
2024-02-19T08:58:32.235Z,101395.00
2024-02-19T09:01:00.959Z,101400.19
2024-02-19T09:03:33.328Z,101393.97
2024-02-19T09:06:01.195Z,101386.03
2024-02-19T09:08:28.757Z,101387.59
2024-02-19T09:10:56.778Z,101393.28
2024-02-19T09:13:24.669Z,101397.84
2024-02-19T09:15:53.946Z,101389.87
2024-02-19T09:18:21.614Z,101389.37
2024-02-19T09:20:49.688Z,101394.28
2024-02-19T09:23:19.474Z,101389.91
2024-02-19T09:25:46.935Z,101388.31
2024-02-19T09:28:17.150Z,101378.78
2024-02-19T09:30:47.073Z,101363.94
2024-02-19T09:33:17.143Z,101369.34
2024-02-19T09:35:45.022Z,101368.34
2024-02-19T09:38:12.495Z,101364.63
2024-02-19T09:40:40.262Z,101379.31
2024-02-19T09:43:10.448Z,101377.03
2024-02-19T09:45:38.374Z,101383.66
2024-02-19T09:48:07.300Z,101385.16
2024-02-19T09:50:35.842Z,101389.84
2024-02-19T09:53:11.629Z,101393.13
2024-02-19T09:55:40.124Z,101394.13
2024-02-19T09:58:08.355Z,101383.44
2024-02-19T10:00:38.548Z,101385.47
2024-02-19T10:03:08.482Z,101383.19
2024-02-19T10:05:36.275Z,101381.38
2024-02-19T10:08:10.166Z,101385.63
2024-02-19T10:10:43.030Z,101378.25
2024-02-19T10:13:12.340Z,101374.91
2024-02-19T10:15:43.034Z,101376.44
2024-02-19T10:18:19.718Z,101380.16
2024-02-19T10:20:55.387Z,101380.34
2024-02-19T10:23:25.178Z,101376.84
2024-02-19T10:25:54.594Z,101390.22
2024-02-19T10:28:25.972Z,101379.13
2024-02-19T10:30:58.633Z,101377.50
2024-02-19T10:33:37.224Z,101373.91
2024-02-19T10:36:07.540Z,101367.31
2024-02-19T10:38:37.409Z,101358.81
2024-02-19T10:41:05.301Z,101358.47
2024-02-19T10:43:36.643Z,101348.69
2024-02-19T10:46:05.876Z,101347.75
2024-02-19T10:48:36.192Z,101344.94
2024-02-19T10:51:06.712Z,101338.75
2024-02-19T10:53:34.471Z,101333.72
2024-02-19T10:56:19.023Z,101323.19
2024-02-19T10:58:57.171Z,101320.72
2024-02-19T11:01:25.336Z,101324.94
2024-02-19T11:03:53.589Z,101329.13
2024-02-19T11:06:24.258Z,101332.75
2024-02-19T11:08:57.300Z,101323.44
2024-02-19T11:11:25.605Z,101331.97
2024-02-19T11:13:53.234Z,101336.94
2024-02-19T11:16:20.934Z,101327.41
2024-02-19T11:18:55.456Z,101332.25
2024-02-19T11:21:23.316Z,101322.25
2024-02-19T11:23:52.237Z,101309.78
2024-02-19T11:26:22.809Z,101312.47
2024-02-19T11:28:55.762Z,101312.09
2024-02-19T11:31:24.010Z,101302.25
2024-02-19T11:33:59.326Z,101300.34
2024-02-19T11:36:27.362Z,101297.47
2024-02-19T11:38:56.809Z,101298.91
2024-02-19T11:41:26.925Z,101293.22
2024-02-19T11:43:56.412Z,101295.59
2024-02-19T11:46:32.629Z,101285.56
2024-02-19T11:49:00.610Z,101284.66
2024-02-19T11:51:30.585Z,101283.66
2024-02-19T11:54:02.918Z,101285.59
2024-02-19T11:56:44.368Z,101271.41
2024-02-19T11:59:12.200Z,101280.91
2024-02-19T12:01:40.274Z,101286.38
2024-02-19T12:04:10.717Z,101284.53
2024-02-19T12:06:41.784Z,101281.84
2024-02-19T12:09:10.040Z,101277.59
2024-02-19T12:11:41.320Z,101274.63
2024-02-19T12:14:11.400Z,101267.78
2024-02-19T12:16:38.886Z,101261.91
2024-02-19T12:19:13.693Z,101266.25
2024-02-19T12:21:44.095Z,101265.16
2024-02-19T12:24:12.308Z,101258.38
2024-02-19T12:26:39.847Z,101265.34
2024-02-19T12:29:08.121Z,101260.06
2024-02-19T12:31:36.482Z,101259.47
2024-02-19T12:34:05.574Z,101255.25
2024-02-19T12:36:35.614Z,101248.13
2024-02-19T12:39:04.195Z,101251.53
2024-02-19T12:41:31.633Z,101253.59
2024-02-19T12:43:59.550Z,101251.59
2024-02-19T12:46:27.144Z,101250.81
2024-02-19T12:48:59.241Z,101243.72
2024-02-19T12:51:34.750Z,101235.72
2024-02-19T12:54:06.019Z,101236.87
2024-02-19T12:56:33.933Z,101230.44
2024-02-19T12:59:01.534Z,101235.28
2024-02-19T13:01:32.652Z,101229.19
2024-02-19T13:04:02.918Z,101224.50
2024-02-19T13:06:31.551Z,101221.34
2024-02-19T13:08:59.884Z,101217.22
2024-02-19T13:11:35.446Z,101216.47
2024-02-19T13:14:04.038Z,101221.62
2024-02-19T13:16:36.548Z,101227.59
2024-02-19T13:19:04.339Z,101226.19
2024-02-19T13:21:34.732Z,101218.62
2024-02-19T13:24:02.362Z,101217.00
2024-02-19T13:26:29.902Z,101225.38
2024-02-19T13:28:58.079Z,101220.53
2024-02-19T13:31:25.689Z,101216.69
2024-02-19T13:33:53.293Z,101221.56
2024-02-19T13:36:24.306Z,101224.06
2024-02-19T13:38:59.294Z,101225.47
2024-02-19T13:41:29.795Z,101223.75
2024-02-19T13:43:57.505Z,101213.97
2024-02-19T13:46:27.393Z,101210.97
2024-02-19T13:49:02.137Z,101213.41
2024-02-19T13:51:29.938Z,101212.87
2024-02-19T13:54:07.458Z,101210.91
2024-02-19T13:56:37.446Z,101203.66
2024-02-19T13:59:08.227Z,101210.69
2024-02-19T14:01:39.364Z,101201.56
2024-02-19T14:04:09.187Z,101200.06
2024-02-19T14:06:36.976Z,101204.88
2024-02-19T14:09:07.496Z,101207.44
2024-02-19T14:11:35.805Z,101195.09
2024-02-19T14:14:04.785Z,101202.44
2024-02-19T14:16:33.366Z,101206.59
2024-02-19T14:19:01.745Z,101207.97
2024-02-19T14:21:29.807Z,101214.81
2024-02-19T14:23:59.770Z,101209.63
2024-02-19T14:26:29.867Z,101211.22
2024-02-19T14:29:05.104Z,101204.88
2024-02-19T14:31:34.026Z,101208.81
2024-02-19T14:34:01.866Z,101202.91
2024-02-19T14:36:29.991Z,101205.19
2024-02-19T14:39:00.447Z,101202.03
2024-02-19T14:41:27.979Z,101203.88
2024-02-19T14:43:56.109Z,101202.25
2024-02-19T14:46:26.393Z,101202.28
2024-02-19T14:48:54.218Z,101204.53
2024-02-19T14:51:24.644Z,101207.88
2024-02-19T14:53:55.428Z,101206.25
2024-02-19T14:56:23.145Z,101212.75
2024-02-19T14:58:50.720Z,101209.91
2024-02-19T15:01:20.844Z,101210.31
2024-02-19T15:03:48.514Z,101210.34
2024-02-19T15:06:16.108Z,101209.50
2024-02-19T15:08:43.975Z,101206.94
2024-02-19T15:11:11.511Z,101217.69
2024-02-19T15:13:39.000Z,101206.59
2024-02-19T15:16:25.591Z,101212.72
2024-02-19T15:18:53.238Z,101212.03
2024-02-19T15:21:22.197Z,101212.03
2024-02-19T15:23:49.619Z,101210.56
2024-02-19T15:26:17.271Z,101211.56
2024-02-19T15:28:45.098Z,101208.12
2024-02-19T15:31:13.850Z,101203.69
2024-02-19T15:33:41.688Z,101196.81
2024-02-19T15:36:12.940Z,101199.47
2024-02-19T15:38:46.926Z,101193.44
2024-02-19T15:41:17.541Z,101191.66
2024-02-19T15:43:45.064Z,101195.44
2024-02-19T15:46:12.530Z,101193.06
2024-02-19T15:48:40.383Z,101193.91
2024-02-19T15:51:07.987Z,101198.53
2024-02-19T15:53:35.792Z,101187.09
2024-02-19T15:56:05.120Z,101184.81
2024-02-19T15:58:32.902Z,101190.72
2024-02-19T16:01:00.596Z,101193.25
2024-02-19T16:03:29.585Z,101195.25
2024-02-19T16:06:01.039Z,101195.41
2024-02-19T16:08:35.137Z,101197.06
2024-02-19T16:11:04.528Z,101191.22
2024-02-19T16:13:33.651Z,101200.47
2024-02-19T16:16:03.681Z,101204.03
2024-02-19T16:18:31.805Z,101203.34
2024-02-19T16:21:00.883Z,101207.91
2024-02-19T16:23:30.331Z,101213.41
2024-02-19T16:25:59.333Z,101208.31
2024-02-19T16:28:27.367Z,101212.87
2024-02-19T16:30:55.576Z,101207.75
2024-02-19T16:33:23.592Z,101204.41
2024-02-19T16:35:51.706Z,101210.53
2024-02-19T16:38:19.287Z,101209.09
2024-02-19T16:40:47.790Z,101214.25
2024-02-19T16:43:15.645Z,101210.81
2024-02-19T16:45:43.353Z,101207.38
2024-02-19T16:48:15.181Z,101206.56
2024-02-19T16:50:43.954Z,101202.97
2024-02-19T16:53:11.950Z,101211.81
2024-02-19T16:55:43.589Z,101208.34
2024-02-19T16:58:15.945Z,101208.44
2024-02-19T17:00:45.140Z,101205.94
2024-02-19T17:03:15.085Z,101200.75
2024-02-19T17:05:42.781Z,101206.06
2024-02-19T17:08:10.476Z,101208.03
2024-02-19T17:10:40.108Z,101202.84
2024-02-19T17:13:07.725Z,101215.97
2024-02-19T17:15:35.176Z,101220.50
2024-02-19T17:18:04.025Z,101223.97
2024-02-19T17:20:33.251Z,101221.66
2024-02-19T17:23:01.058Z,101230.78
2024-02-19T17:25:30.739Z,101220.34
2024-02-19T17:27:58.311Z,101233.53
2024-02-19T17:30:27.146Z,101231.09
2024-02-19T17:32:55.000Z,101234.81
2024-02-19T17:35:24.311Z,101234.91
2024-02-19T17:37:52.069Z,101240.41
2024-02-19T17:40:19.882Z,101246.84
2024-02-19T17:42:48.791Z,101244.41
2024-02-19T17:45:16.679Z,101248.22
2024-02-19T17:47:44.812Z,101248.25
2024-02-19T17:50:12.372Z,101237.28
2024-02-19T17:52:40.071Z,101248.84
2024-02-19T17:55:10.195Z,101244.47
2024-02-19T17:57:37.707Z,101246.38
2024-02-19T18:00:06.297Z,101254.47
2024-02-19T18:02:39.467Z,101242.31
2024-02-19T18:05:07.620Z,101247.63
2024-02-19T18:07:36.012Z,101250.19
2024-02-19T18:10:05.106Z,101247.91
2024-02-19T18:12:33.396Z,101241.09
2024-02-19T18:15:01.087Z,101244.78
2024-02-19T18:17:28.599Z,101241.25
2024-02-19T18:19:56.547Z,101239.59
2024-02-19T18:22:24.248Z,101232.56
2024-02-19T18:24:53.032Z,101238.72
2024-02-19T18:27:22.070Z,101240.66
2024-02-19T18:29:49.781Z,101240.69
2024-02-19T18:32:19.240Z,101233.72
2024-02-19T18:34:48.122Z,101236.44
2024-02-19T18:37:16.043Z,101232.00
2024-02-19T18:39:43.547Z,101231.22
2024-02-19T18:42:12.849Z,101228.66
2024-02-19T18:44:40.335Z,101232.06
2024-02-19T18:47:08.117Z,101229.44
2024-02-19T18:49:37.138Z,101219.03
2024-02-19T18:52:04.949Z,101225.12
2024-02-19T18:54:33.378Z,101227.78
2024-02-19T18:57:02.361Z,101234.75
2024-02-19T18:59:32.020Z,101233.06
2024-02-19T19:02:04.548Z,101241.81
2024-02-19T19:04:32.782Z,101233.16
2024-02-19T19:07:01.369Z,101243.66
2024-02-19T19:09:29.101Z,101242.00
2024-02-19T19:11:57.605Z,101240.25
2024-02-19T19:14:25.434Z,101237.75
2024-02-19T19:16:53.234Z,101244.81
2024-02-19T19:19:21.474Z,101245.62
2024-02-19T19:21:49.271Z,101244.31
2024-02-19T19:24:16.757Z,101241.50
2024-02-19T19:26:45.696Z,101236.56
2024-02-19T19:29:13.328Z,101247.97
2024-02-19T19:31:40.955Z,101245.50
2024-02-19T19:34:09.801Z,101248.38
2024-02-19T19:36:37.805Z,101265.81
2024-02-19T19:39:06.606Z,101265.22
2024-02-19T19:41:36.440Z,101266.31
2024-02-19T19:44:06.319Z,101274.37
2024-02-19T19:46:37.260Z,101269.22
2024-02-19T19:49:06.030Z,101267.34
2024-02-19T19:51:33.618Z,101273.69
2024-02-19T19:54:01.167Z,101268.47
2024-02-19T19:56:29.231Z,101271.03
2024-02-19T19:58:59.358Z,101269.62
2024-02-19T20:01:27.435Z,101278.19
2024-02-19T20:03:55.568Z,101261.72
2024-02-19T20:06:23.288Z,101264.44
2024-02-19T20:08:52.835Z,101272.25
2024-02-19T20:11:22.682Z,101273.16
2024-02-19T20:13:50.788Z,101276.72
2024-02-19T20:16:19.612Z,101279.44
2024-02-19T20:18:47.607Z,101282.00
2024-02-19T20:21:17.522Z,101270.66
2024-02-19T20:23:46.027Z,101265.41
2024-02-19T20:26:14.468Z,101262.69
2024-02-19T20:28:41.951Z,101263.66
2024-02-19T20:31:09.449Z,101261.03
2024-02-19T20:33:37.484Z,101272.25
2024-02-19T20:36:05.546Z,101273.16
2024-02-19T20:38:33.232Z,101264.69
2024-02-19T20:41:01.563Z,101257.63
2024-02-19T20:43:29.127Z,101250.47
2024-02-19T20:45:56.767Z,101259.16
2024-02-19T20:48:24.719Z,101264.44
2024-02-19T20:50:52.301Z,101259.31
2024-02-19T20:53:19.733Z,101271.44
2024-02-19T20:55:47.674Z,101261.97
2024-02-19T20:58:16.374Z,101255.00
2024-02-19T21:00:44.016Z,101262.03
2024-02-19T21:03:11.859Z,101259.31
2024-02-19T21:05:41.792Z,101254.16
2024-02-19T21:08:10.933Z,101254.13
2024-02-19T21:10:41.082Z,101258.50
2024-02-19T21:13:08.823Z,101256.75
2024-02-19T21:15:36.378Z,101254.25
2024-02-19T21:18:09.210Z,101251.63
2024-02-19T21:20:37.081Z,101240.37
2024-02-19T21:23:05.133Z,101251.75
2024-02-19T21:25:32.907Z,101244.72
2024-02-19T21:28:00.570Z,101239.56
2024-02-19T21:30:28.449Z,101246.50
2024-02-19T21:32:55.989Z,101241.22
2024-02-19T21:35:23.699Z,101250.03
2024-02-19T21:37:51.497Z,101250.84
2024-02-19T21:40:20.195Z,101239.66
2024-02-19T21:42:48.193Z,101248.31
2024-02-19T21:45:17.499Z,101248.22
2024-02-19T21:47:45.458Z,101244.81
2024-02-19T21:50:13.509Z,101242.19
2024-02-19T21:52:42.270Z,101240.41
2024-02-19T21:55:10.630Z,101237.00
2024-02-19T21:57:39.012Z,101237.00
2024-02-19T22:00:09.050Z,101237.03
2024-02-19T22:02:37.268Z,101224.84
2024-02-19T22:05:05.450Z,101226.63
2024-02-19T22:07:33.572Z,101218.91
2024-02-19T22:10:03.136Z,101226.91
2024-02-19T22:12:31.271Z,101229.38
2024-02-19T22:14:59.617Z,101220.72
2024-02-19T22:17:29.628Z,101227.72
2024-02-19T22:19:57.672Z,101225.19
2024-02-19T22:22:25.633Z,101226.91
2024-02-19T22:24:53.549Z,101222.56
2024-02-19T22:27:21.646Z,101222.56
2024-02-19T22:29:49.149Z,101220.00
2024-02-19T22:32:16.863Z,101225.22
2024-02-19T22:34:46.639Z,101226.16
2024-02-19T22:37:17.601Z,101217.44
2024-02-19T22:39:46.197Z,101213.13
2024-02-19T22:42:14.166Z,101219.25
2024-02-19T22:44:41.939Z,101219.31
2024-02-19T22:47:09.574Z,101217.59
2024-02-19T22:49:39.271Z,101215.03
2024-02-19T22:52:07.979Z,101209.75
2024-02-19T22:54:38.142Z,101220.22
2024-02-19T22:57:06.164Z,101209.81
2024-02-19T22:59:34.059Z,101211.59
2024-02-19T23:02:01.960Z,101220.25
2024-02-19T23:04:29.554Z,101211.56
2024-02-19T23:06:57.356Z,101214.16
2024-02-19T23:09:25.198Z,101213.37
2024-02-19T23:11:52.877Z,101222.12
2024-02-19T23:14:20.353Z,101216.00
2024-02-19T23:16:48.131Z,101215.06
2024-02-19T23:19:15.884Z,101215.97
2024-02-19T23:21:44.022Z,101212.63
2024-02-19T23:24:11.713Z,101218.72
2024-02-19T23:26:39.217Z,101215.41
2024-02-19T23:29:06.811Z,101224.97
2024-02-19T23:31:34.752Z,101223.22
2024-02-19T23:34:02.387Z,101220.63
2024-02-19T23:36:30.357Z,101220.63
2024-02-19T23:38:58.110Z,101210.22
2024-02-19T23:41:25.589Z,101215.50
2024-02-19T23:43:53.201Z,101213.78
2024-02-19T23:46:21.005Z,101215.56
2024-02-19T23:48:48.794Z,101221.62
2024-02-19T23:51:16.367Z,101216.50
2024-02-19T23:53:44.169Z,101220.81
2024-02-19T23:56:30.368Z,101228.78
2024-02-19T23:58:58.087Z,101215.75
